Latest Conditions
At L.F.Wade Int. Airport
Recorded at 7:55 pm
Partly Cloudy
Temp.: 
26°C/79°F
Humidity: 
92%
Wind: 
SE 7KT
or 8mph
UV Index: 
0
Island Observations
 
Observations
Wednesday, September 28, 2022

Observations are in local time and taken at least once an hour, or upon the start and end of specified events such as showers and thunderstorms.

Time Sky / Weather Wind Speed/Gusts Temp. R.H. Pressure
     knots (mph)  °C (°F)  %  mb / "Hg
 19:55 Partly Cloudy  SE 7/0 (8/0) 26(79) 92 1021 / 30.15
 18:55 Partly Cloudy  SE 9/0 (10/0) 26(79) 92 1021 / 30.15
 17:55 Few Clouds  SE 9/0 (10/0) 27(80) 88 1021 / 30.14
 16:55 Few Clouds  SSE 9/0 (10/0) 27(81) 87 1020 / 30.13
 15:55 Few Clouds  SSE 9/0 (10/0) 28(82) 85 1020 / 30.13
 14:55 Few Clouds  SSE 10/0 (12/0) 28(83) 85 1021 / 30.14
 13:55 Few Clouds  SSE 11/0 (13/0) 28(83) 85 1021 / 30.15
 12:55 Few Clouds  SE 10/0 (12/0) 28(83) 83 1021 / 30.15
 11:55 Few Clouds  SSE 10/0 (12/0) 28(82) 86 1021 / 30.16
 10:55 Few Clouds  SE 10/0 (12/0) 28(82) 88 1022 / 30.17
 09:55 Few Clouds  SE 9/0 (10/0) 27(80) 91 1022 / 30.17
 08:55 Few Clouds  SE 9/0 (10/0) 26(79) 94 1021 / 30.16
 07:55 Clear  SE 9/0 (10/0) 26(78) 95 1021 / 30.15
 06:55 Few Clouds  SSE 7/0 (8/0) 26(78) 96 1021 / 30.16
 05:55 Partly Cloudy  SSE 6/0 (7/0) 26(78) 97 1021 / 30.16
 04:55 Few Clouds  SSE 8/0 (9/0) 26(78) 97 1021 / 30.16
 03:55 Partly Cloudy  SSE 9/0 (10/0) 26(78) 97 1021 / 30.16
 02:55 Partly Cloudy  SSE 10/0 (12/0) 26(78) 96 1022 / 30.17
 01:55 Partly Cloudy  SSE 9/0 (10/0) 26(79) 96 1022 / 30.18
 00:55 Partly Cloudy  SSE 11/0 (13/0) 26(79) 96 1022 / 30.17
 23:55 Mostly Cloudy  SSE 12/0 (14/0) 26(79) 96 1022 / 30.17
 22:55 Mostly Cloudy  SSE 10/0 (12/0) 26(79) 96 1022 / 30.17
 22:35 Mostly Cloudy  SE 11/0 (13/0) 26(79) 96 1022 / 30.18
 21:55 Few Clouds  SE 12/0 (14/0) 26(78) 96 1022 / 30.17
 20:55 Few Clouds  SE 11/0 (13/0) 26(78) 96 1021 / 30.16
 19:55 Few Clouds  SSE 10/0 (12/0) 26(79) 94 1021 / 30.15
 18:55 Few Clouds  SSE 10/0 (12/0) 26(79) 93 1021 / 30.15
 17:55 Few Clouds  SSE 10/0 (12/0) 27(81) 91 1021 / 30.14
 16:55 Few Clouds  SSE 10/0 (12/0) 28(82) 87 1021 / 30.14
 15:55 Few Clouds  SSE 9/0 (10/0) 28(82) 86 1021 / 30.14
 14:55 Partly Cloudy  SSE 10/0 (12/0) 28(83) 84 1021 / 30.15
 13:55 Partly Cloudy  SSE 8/0 (9/0) 28(83) 83 1021 / 30.15
 12:55 Mostly Cloudy  S 8/0 (9/0) 28(82) 85 1022 / 30.17
 11:55 Mostly Cloudy  S 8/0 (9/0) 28(82) 86 1022 / 30.17
 10:55 Mostly Cloudy  S 9/0 (10/0) 28(82) 87 1022 / 30.17
 09:55 Mostly Cloudy  S 8/0 (9/0) 27(80) 89 1021 / 30.15
 08:55 Mostly Cloudy  S 7/0 (8/0) 26(78) 93 1021 / 30.14
 07:55 Mostly Cloudy  SSE 7/0 (8/0) 26(78) 96 1020 / 30.12
 06:55 Mostly Cloudy  S 5/0 (6/0) 25(77) 97 1020 / 30.12
 05:55 Mostly Cloudy  S 5/0 (6/0) 25(77) 96 1020 / 30.11
 04:55 Partly Cloudy  SSW 5/0 (6/0) 25(76) 96 1019 / 30.10
 03:55 Partly Cloudy  SW 5/0 (6/0) 24(76) 95 1019 / 30.09
 02:55 Mostly Cloudy  SW 6/0 (7/0) 24(76) 95 1019 / 30.10
 01:55 Mostly Cloudy  SW 10/0 (12/0) 24(76) 94 1019 / 30.09
 00:55 Mostly Cloudy  SSW 11/0 (13/0) 25(76) 92 1019 / 30.09
 23:55 Mostly Cloudy  S 10/0 (12/0) 25(77) 95 1019 / 30.09
 23:14 Mostly Cloudy  S 10/0 (12/0) 25(78) 93 1019 / 30.09
 22:55 Mostly Cloudy  SSE 11/0 (13/0) 26(78) 93 1019 / 30.08
 21:55 Mostly Cloudy  SE 12/0 (14/0) 26(78) 93 1019 / 30.08
 21:14 Mostly Cloudy  ESE 10/0 (12/0) 26(78) 93 1019 / 30.08
 20:55 Overcast  E 7/0 (8/0) 25(77) 96 1018 / 30.07
 20:38 Overcast  E 8/0 (9/0) 25(76) 96 1018 / 30.07
 20:15 Overcast Drizzle E 10/0 (12/0) 25(77) 96 1018 / 30.07
 20:09 Overcast Drizzle ESE 11/0 (13/0) 25(77) 95 1018 / 30.06
 19:55 Overcast Drizzle E 9/0 (10/0) 25(77) 93 1018 / 30.06
 19:35 Mostly Cloudy Rain E 10/0 (12/0) 26(78) 90 1018 / 30.06
 18:55 Mostly Cloudy  E 10/0 (12/0) 26(79) 85 1018 / 30.06
 17:55 Overcast  ESE 8/0 (9/0) 26(79) 86 1018 / 30.07
 16:55 Overcast  ESE 9/0 (10/0) 26(80) 83 1018 / 30.07
 15:55 Mostly Cloudy  SE 9/0 (10/0) 27(81) 78 1018 / 30.07
 14:55 Mostly Cloudy  SE 11/0 (13/0) 27(81) 79 1018 / 30.07
 13:55 Mostly Cloudy  SE 10/0 (12/0) 27(81) 78 1019 / 30.08
 12:55 Mostly Cloudy  SE 9/0 (10/0) 27(81) 76 1019 / 30.10
 11:55 Mostly Cloudy  ESE 6/0 (7/0) 27(80) 76 1020 / 30.11
 10:55 Mostly Cloudy  SSE 5/0 (6/0) 26(79) 75 1020 / 30.12
 09:55 Partly Cloudy  SE 8/0 (9/0) 26(80) 76 1020 / 30.11
 08:55 Partly Cloudy  SE 7/0 (8/0) 26(78) 74 1019 / 30.09
 07:55 Few Clouds  SE 7/0 (8/0) 25(76) 80 1018 / 30.07
 06:55 Few Clouds  SSE 6/0 (7/0) 24(75) 77 1018 / 30.06
 05:55 Partly Cloudy  SSE 6/0 (7/0) 24(76) 72 1018 / 30.05
 04:55 Few Clouds  SSE 7/0 (8/0) 24(75) 76 1018 / 30.05
 03:55 Few Clouds  SSE 7/0 (8/0) 24(75) 74 1018 / 30.05
 02:55 Few Clouds  SSE 8/0 (9/0) 24(75) 71 1018 / 30.06
 01:55 Few Clouds  SE 6/0 (7/0) 24(75) 71 1018 / 30.07
 00:55 Few Clouds  SE 6/0 (7/0) 24(75) 69 1019 / 30.08
 23:55 Few Clouds  SE 6/0 (7/0) 24(75) 65 1019 / 30.08
 22:55 Few Clouds  ESE 6/0 (7/0) 24(74) 62 1019 / 30.08
 21:55 Few Clouds  ESE 5/0 (6/0) 24(74) 59 1019 / 30.08
 20:55 Few Clouds  E 4/0 (5/0) 23(73) 66 1018 / 30.07
 19:55 Partly Cloudy  E 3/0 (3/0) 23(74) 63 1018 / 30.06
 18:55 Few Clouds  SE 6/0 (7/0) 24(75) 58 1018 / 30.06
 17:55 Few Clouds  ESE 6/0 (7/0) 25(77) 52 1018 / 30.06
 16:55 Few Clouds  SE 7/0 (8/0) 26(78) 53 1018 / 30.05
 15:55 Few Clouds  VRB 6/0 (7/0) 25(76) 54 1018 / 30.06
 14:55 Few Clouds  ENE 5/0 (6/0) 26(79) 53 1018 / 30.06
 13:55 Few Clouds  E 6/0 (7/0) 26(78) 54 1018 / 30.07
 12:55 Few Clouds  N 5/0 (6/0) 25(76) 56 1019 / 30.08
 11:55 Few Clouds  N 4/0 (5/0) 25(76) 53 1019 / 30.08
 10:55 Few Clouds  VRB 2/0 (2/0) 26(78) 51 1019 / 30.08
 09:55 Few Clouds  VRB 3/0 (3/0) 25(77) 53 1018 / 30.07
 08:55 Few Clouds  VRB 1/0 (1/0) 25(76) 51 1018 / 30.06
 07:55 Few Clouds  Calm 21(70) 78 1018 / 30.05
 06:55 Few Clouds  Calm 21(69) 80 1017 / 30.04
 05:55 Few Clouds  N 1/0 (1/0) 20(69) 80 1017 / 30.04
 04:55 Few Clouds  N 2/0 (2/0) 20(69) 69 1017 / 30.03
 03:55 Few Clouds  Calm 20(68) 75 1017 / 30.03
 02:55 Few Clouds  Calm 20(69) 79 1017 / 30.04
 01:55 Few Clouds  NNE 1/0 (1/0) 21(70) 72 1018 / 30.05
 00:55 Few Clouds  NW 2/0 (2/0) 22(72) 63 1018 / 30.06
 23:55 Few Clouds  NNW 3/0 (3/0) 23(73) 59 1018 / 30.06
Island AWOS